Time;durP1;ratioP1;P1;durP2;ratioP2;P2;SDS_P1;SDS_P2;PMS_P1;PMS_P2;Temp;Humidity;BMP_temperature;BMP_pressure;BME280_temperature;BME280_humidity;BME280_pressure;Samples;Min_cycle;Max_cycle;Signal;HPM_P1;HPM_P2
2022/10/15 00:01:14;;;;;;;0.75;0.73;;;18.10;99.90;;;;;;5017458;28;20184;-67
2022/10/15 00:03:43;;;;;;;0.70;0.70;;;18.10;99.90;;;;;;5032820;28;20620;-68
2022/10/15 00:06:17;;;;;;;0.70;0.70;;;18.10;99.90;;;;;;5016967;28;20196;-67
2022/10/15 00:08:44;;;;;;;1.10;1.05;;;18.10;99.90;;;;;;5034223;28;20274;-67
2022/10/15 00:11:20;;;;;;;1.98;0.88;;;18.10;99.90;;;;;;5017342;28;20184;-66
2022/10/15 00:13:47;;;;;;;0.77;0.77;;;18.10;99.90;;;;;;5029242;28;20212;-67
2022/10/15 00:16:20;;;;;;;1.55;0.70;;;18.10;99.90;;;;;;5016768;28;20278;-67
2022/10/15 00:18:47;;;;;;;0.80;0.80;;;18.10;99.90;;;;;;5050526;28;20183;-67
2022/10/15 00:21:17;;;;;;;1.00;0.80;;;18.00;99.90;;;;;;5050256;28;20251;-67
2022/10/15 00:23:43;;;;;;;1.10;0.93;;;18.10;99.90;;;;;;5017253;28;20706;-68
2022/10/15 00:26:22;;;;;;;0.70;0.70;;;18.10;99.90;;;;;;5033370;28;20199;-67
2022/10/15 00:28:50;;;;;;;1.27;0.80;;;18.10;99.90;;;;;;5033773;28;20266;-67
2022/10/15 00:31:23;;;;;;;0.73;0.73;;;18.10;99.90;;;;;;5017693;28;20179;-67
2022/10/15 00:33:51;;;;;;;0.80;0.80;;;18.10;99.90;;;;;;5017104;28;20184;-68
2022/10/15 00:36:23;;;;;;;0.70;0.60;;;18.00;99.90;;;;;;5034237;28;20231;-67
2022/10/15 00:38:51;;;;;;;0.90;0.90;;;18.10;99.90;;;;;;5033488;28;20184;-66
2022/10/15 00:41:28;;;;;;;0.95;0.65;;;18.10;99.90;;;;;;5016854;28;20217;-67
2022/10/15 00:44:24;;;;;;;1.25;0.70;;;18.10;99.90;;;;;;5031761;28;20183;-67
2022/10/15 00:47:19;;;;;;;0.80;0.70;;;18.10;99.90;;;;;;5031698;28;20218;-67
2022/10/15 00:50:21;;;;;;;0.60;0.60;;;18.00;99.90;;;;;;5007408;28;20176;-67
2022/10/15 00:53:03;;;;;;;0.50;0.50;;;18.10;99.90;;;;;;5012970;28;20191;-67
2022/10/15 00:55:35;;;;;;;0.70;0.70;;;18.10;99.90;;;;;;5029789;28;20173;-67
2022/10/15 00:58:07;;;;;;;0.98;0.60;;;18.00;99.90;;;;;;5029558;28;20735;-67
2022/10/15 01:00:34;;;;;;;0.90;0.70;;;18.00;99.90;;;;;;5013330;28;20179;-67
2022/10/15 01:03:00;;;;;;;1.40;0.73;;;18.00;99.90;;;;;;5013089;28;20235;-67
2022/10/15 01:05:26;;;;;;;0.43;0.43;;;18.10;99.90;;;;;;5012503;28;20208;-67
2022/10/15 01:07:51;;;;;;;1.05;0.75;;;18.00;99.90;;;;;;5013124;28;20692;-67
2022/10/15 01:10:20;;;;;;;0.63;0.60;;;18.10;99.90;;;;;;5013185;28;20180;-67
2022/10/15 01:13:32;;;;;;;0.70;0.57;;;18.10;99.90;;;;;;5029409;28;20199;-67
2022/10/15 01:16:18;;;;;;;1.25;1.05;;;18.10;99.90;;;;;;4994473;28;20191;-67
2022/10/15 01:19:37;;;;;;;0.55;0.52;;;18.10;99.90;;;;;;5016043;28;20285;-67
2022/10/15 01:22:30;;;;;;;0.50;0.50;;;18.10;99.90;;;;;;5032661;28;20187;-67
2022/10/15 01:25:20;;;;;;;0.50;0.50;;;18.10;99.90;;;;;;5032121;28;20211;-67
2022/10/15 01:27:57;;;;;;;0.50;0.50;;;18.10;99.90;;;;;;5016239;28;20207;-67
2022/10/15 01:30:33;;;;;;;1.02;0.80;;;18.00;99.90;;;;;;5032178;28;20179;-67
2022/10/15 01:33:23;;;;;;;0.75;0.70;;;18.10;99.90;;;;;;5033461;28;20176;-67
2022/10/15 01:35:57;;;;;;;0.77;0.70;;;18.10;99.90;;;;;;5015833;28;20226;-68
2022/10/15 01:38:37;;;;;;;0.50;0.50;;;18.00;99.90;;;;;;5015658;28;20199;-67
2022/10/15 01:41:15;;;;;;;0.70;0.60;;;18.00;99.90;;;;;;5032119;28;20182;-67
2022/10/15 01:44:21;;;;;;;0.60;0.50;;;18.10;99.90;;;;;;5015155;28;20175;-67
2022/10/15 01:47:16;;;;;;;0.73;0.50;;;18.10;99.90;;;;;;4996346;28;20317;-67
2022/10/15 01:49:45;;;;;;;0.85;0.52;;;18.10;99.90;;;;;;5048540;28;20191;-67
2022/10/15 01:52:22;;;;;;;0.55;0.52;;;18.10;99.90;;;;;;5015584;28;20186;-67
2022/10/15 01:54:51;;;;;;;0.52;0.50;;;18.00;99.90;;;;;;5031629;28;20179;-66
2022/10/15 01:57:19;;;;;;;0.50;0.50;;;18.10;99.90;;;;;;5015124;28;20210;-67
2022/10/15 01:59:45;;;;;;;0.50;0.50;;;18.10;99.90;;;;;;5031898;28;20314;-67
2022/10/15 02:02:12;;;;;;;1.20;0.60;;;18.00;99.90;;;;;;5015394;28;20269;-67
2022/10/15 02:04:39;;;;;;;0.77;0.60;;;18.00;99.90;;;;;;5013261;28;20747;-67
2022/10/15 02:07:13;;;;;;;0.55;0.55;;;18.00;99.90;;;;;;4995646;28;20212;-67
2022/10/15 02:10:06;;;;;;;0.52;0.52;;;18.00;99.90;;;;;;5012110;28;20188;-67
2022/10/15 02:13:08;;;;;;;0.60;0.60;;;18.00;99.90;;;;;;5023651;28;20194;-67
2022/10/15 02:15:40;;;;;;;1.05;0.68;;;18.10;99.90;;;;;;5014150;28;20184;-67
2022/10/15 02:18:22;;;;;;;0.95;0.63;;;18.10;99.90;;;;;;5004027;28;20212;-67
2022/10/15 02:21:11;;;;;;;0.60;0.50;;;18.10;99.90;;;;;;5011866;28;20628;-67
2022/10/15 02:24:09;;;;;;;0.95;0.50;;;18.00;99.90;;;;;;5019476;28;20191;-67
2022/10/15 02:26:36;;;;;;;0.60;0.60;;;18.00;99.90;;;;;;5027134;28;20243;-67
2022/10/15 02:29:08;;;;;;;0.55;0.55;;;18.00;99.90;;;;;;5011977;28;20184;-68
2022/10/15 02:31:38;;;;;;;0.77;0.40;;;18.00;99.90;;;;;;5011552;28;20179;-67
2022/10/15 02:34:10;;;;;;;0.77;0.50;;;18.10;99.90;;;;;;5031283;28;20566;-67
2022/10/15 02:36:40;;;;;;;0.50;0.50;;;18.00;99.90;;;;;;5014466;28;20714;-68
2022/10/15 02:39:11;;;;;;;0.43;0.43;;;18.00;99.90;;;;;;4997087;28;20188;-68
2022/10/15 02:41:39;;;;;;;0.43;0.40;;;18.00;99.90;;;;;;5011494;28;20636;-67
2022/10/15 02:44:08;;;;;;;0.40;0.40;;;18.00;99.90;;;;;;5011255;28;20192;-68
2022/10/15 02:49:05;;;;;;;0.50;0.50;;;18.00;99.90;;;;;;5012825;28;20294;-71
2022/10/15 02:51:32;;;;;;;0.57;0.50;;;18.00;99.90;;;;;;5030837;28;20270;-70
2022/10/15 02:54:00;;;;;;;0.40;0.40;;;18.00;99.90;;;;;;5014505;28;20202;-70
2022/10/15 02:56:26;;;;;;;0.75;0.40;;;18.00;99.90;;;;;;5031223;28;20187;-71
2022/10/15 02:58:52;;;;;;;0.55;0.50;;;18.00;99.90;;;;;;5024997;28;20275;-71
2022/10/15 03:01:19;;;;;;;0.40;0.40;;;18.10;99.90;;;;;;5034097;28;20189;-71
2022/10/15 03:03:45;;;;;;;0.40;0.40;;;18.00;99.90;;;;;;5034203;28;20217;-71
2022/10/15 03:06:11;;;;;;;1.58;0.70;;;18.10;99.90;;;;;;5033984;28;20199;-71
2022/10/15 03:08:37;;;;;;;0.50;0.50;;;18.10;99.90;;;;;;5034512;28;20210;-71
2022/10/15 03:11:03;;;;;;;0.60;0.50;;;18.00;99.90;;;;;;5018072;28;20182;-71
2022/10/15 03:13:29;;;;;;;0.30;0.30;;;18.00;99.90;;;;;;5050718;28;20182;-71
2022/10/15 03:15:55;;;;;;;0.82;0.68;;;18.10;99.90;;;;;;5033964;28;20186;-71
2022/10/15 03:18:22;;;;;;;0.57;0.57;;;18.10;99.90;;;;;;5050681;28;20207;-71
2022/10/15 03:20:55;;;;;;;0.63;0.40;;;18.00;99.90;;;;;;5034103;28;20187;-71
2022/10/15 03:23:21;;;;;;;1.10;0.68;;;18.00;99.90;;;;;;5034298;28;20186;-70
2022/10/15 03:25:51;;;;;;;0.40;0.40;;;18.00;99.90;;;;;;5011827;28;20280;-71
2022/10/15 03:28:21;;;;;;;0.50;0.40;;;18.10;99.90;;;;;;5033844;28;20209;-71
2022/10/15 03:30:48;;;;;;;0.30;0.30;;;18.10;99.90;;;;;;5034240;28;20185;-70
2022/10/15 03:33:14;;;;;;;0.40;0.40;;;18.10;99.90;;;;;;5033925;28;20241;-70
2022/10/15 03:35:40;;;;;;;0.50;0.50;;;18.10;99.90;;;;;;5017163;28;20278;-71
2022/10/15 03:38:08;;;;;;;0.80;0.43;;;18.10;99.90;;;;;;5018039;28;20740;-71
2022/10/15 03:40:34;;;;;;;0.60;0.60;;;18.00;99.90;;;;;;5021250;28;20181;-71
2022/10/15 03:43:14;;;;;;;0.50;0.50;;;18.10;99.90;;;;;;5023130;28;20236;-70
2022/10/15 03:45:40;;;;;;;0.32;0.32;;;18.00;99.90;;;;;;5037662;28;20210;-71
2022/10/15 03:48:16;;;;;;;0.40;0.40;;;18.00;99.90;;;;;;5038786;28;20206;-71
2022/10/15 03:50:42;;;;;;;0.88;0.50;;;18.00;99.90;;;;;;5053985;28;20224;-71
2022/10/15 03:53:08;;;;;;;1.00;0.60;;;18.10;99.90;;;;;;5037515;28;20190;-71
2022/10/15 03:55:34;;;;;;;0.40;0.40;;;18.10;99.90;;;;;;5034097;28;20191;-71
2022/10/15 03:58:00;;;;;;;0.63;0.40;;;18.00;99.90;;;;;;5020980;28;20213;-71
2022/10/15 04:00:26;;;;;;;0.40;0.40;;;18.10;99.90;;;;;;5037332;28;20186;-71
2022/10/15 04:02:56;;;;;;;0.50;0.50;;;18.00;99.90;;;;;;5037575;28;20175;-71
2022/10/15 04:05:25;;;;;;;0.55;0.43;;;18.10;99.90;;;;;;5037538;28;20207;-71
2022/10/15 04:07:56;;;;;;;0.50;0.50;;;18.00;99.90;;;;;;5037179;28;20289;-71
2022/10/15 04:10:23;;;;;;;0.43;0.43;;;18.00;99.90;;;;;;5054935;28;20210;-71
2022/10/15 04:12:49;;;;;;;1.23;0.60;;;18.00;99.90;;;;;;5037219;28;20182;-71
2022/10/15 04:15:16;;;;;;;0.47;0.40;;;18.00;99.90;;;;;;5020501;28;20183;-71
2022/10/15 04:17:54;;;;;;;0.40;0.40;;;18.00;99.90;;;;;;5036896;28;20221;-71
2022/10/15 04:20:20;;;;;;;0.45;0.40;;;18.00;99.90;;;;;;5037282;28;20769;-71
2022/10/15 04:22:47;;;;;;;0.50;0.50;;;18.00;99.90;;;;;;5020802;28;20178;-72
2022/10/15 04:25:13;;;;;;;0.43;0.43;;;18.00;99.90;;;;;;5036221;28;20202;-71
2022/10/15 04:27:39;;;;;;;0.40;0.40;;;18.00;99.90;;;;;;5017417;28;20208;-71
2022/10/15 04:30:10;;;;;;;0.68;0.50;;;18.10;99.90;;;;;;5036719;28;20218;-71
2022/10/15 04:32:40;;;;;;;0.73;0.70;;;18.00;99.90;;;;;;5020959;28;20182;-70
2022/10/15 04:35:07;;;;;;;0.50;0.50;;;18.00;99.90;;;;;;5036442;28;20186;-71
2022/10/15 04:37:51;;;;;;;0.80;0.40;;;18.00;99.90;;;;;;5039543;28;20201;-71
2022/10/15 04:40:17;;;;;;;0.47;0.40;;;18.00;99.90;;;;;;5036735;28;20182;-71
2022/10/15 04:42:44;;;;;;;0.40;0.40;;;18.00;99.90;;;;;;5036587;28;20195;-71
2022/10/15 04:45:11;;;;;;;0.40;0.40;;;18.00;99.90;;;;;;5036137;28;20210;-71
2022/10/15 04:47:37;;;;;;;0.40;0.40;;;18.00;99.90;;;;;;5019946;28;20247;-71
2022/10/15 04:50:08;;;;;;;0.40;0.40;;;18.00;99.90;;;;;;5035888;28;20182;-71
2022/10/15 04:52:53;;;;;;;0.50;0.50;;;18.00;99.90;;;;;;5050516;28;20206;-71
2022/10/15 04:55:19;;;;;;;0.65;0.32;;;18.00;99.90;;;;;;5036242;28;20186;-71
2022/10/15 04:57:44;;;;;;;0.52;0.40;;;18.00;99.90;;;;;;5036337;28;20222;-71
2022/10/15 05:00:11;;;;;;;0.40;0.40;;;18.00;99.90;;;;;;5053104;28;20186;-72
2022/10/15 05:02:56;;;;;;;0.50;0.50;;;18.00;99.90;;;;;;5039049;28;20185;-71
2022/10/15 05:05:32;;;;;;;0.30;0.30;;;18.10;99.90;;;;;;5036158;28;20720;-71
2022/10/15 05:08:02;;;;;;;0.47;0.30;;;18.00;99.90;;;;;;5035903;28;20198;-71
2022/10/15 05:10:32;;;;;;;0.60;0.43;;;18.00;99.90;;;;;;5036822;28;20213;-71
2022/10/15 05:13:02;;;;;;;0.40;0.40;;;18.00;99.90;;;;;;5035897;28;20660;-71
2022/10/15 05:15:31;;;;;;;1.08;0.40;;;18.00;99.90;;;;;;5036136;28;20185;-71
2022/10/15 05:17:57;;;;;;;0.40;0.40;;;18.00;99.90;;;;;;5035551;28;20202;-72
2022/10/15 05:20:29;;;;;;;0.40;0.40;;;18.00;99.90;;;;;;5036752;28;20190;-70
2022/10/15 05:22:56;;;;;;;0.43;0.40;;;18.00;99.90;;;;;;5036150;28;20182;-71
2022/10/15 05:25:27;;;;;;;0.50;0.50;;;18.10;99.90;;;;;;5019592;28;20242;-71
2022/10/15 05:27:54;;;;;;;0.35;0.35;;;18.10;99.90;;;;;;5035767;28;20207;-71
2022/10/15 05:30:20;;;;;;;0.40;0.40;;;18.00;99.90;;;;;;5035647;28;20174;-71
2022/10/15 05:32:53;;;;;;;0.60;0.40;;;18.00;99.90;;;;;;5035540;28;20717;-71
2022/10/15 05:35:21;;;;;;;0.38;0.38;;;18.00;99.90;;;;;;5035517;28;20178;-71
2022/10/15 05:37:53;;;;;;;1.02;0.52;;;18.00;99.90;;;;;;5035374;28;20222;-71
2022/10/15 05:40:19;;;;;;;0.43;0.40;;;18.00;99.90;;;;;;5035340;28;20187;-71
2022/10/15 05:42:53;;;;;;;0.43;0.43;;;18.00;99.90;;;;;;5036653;28;20197;-71
2022/10/15 05:45:18;;;;;;;0.57;0.40;;;18.00;99.90;;;;;;5035293;28;20210;-71
2022/10/15 05:47:44;;;;;;;0.40;0.40;;;18.00;99.90;;;;;;5035258;28;20217;-71
2022/10/15 05:50:14;;;;;;;0.40;0.40;;;18.00;99.90;;;;;;5036004;28;20182;-70
2022/10/15 05:52:43;;;;;;;0.40;0.40;;;18.00;99.90;;;;;;5033340;28;20187;-71
2022/10/15 05:55:25;;;;;;;0.38;0.38;;;18.00;99.90;;;;;;5034774;28;20657;-71
2022/10/15 05:57:50;;;;;;;0.30;0.30;;;18.00;99.90;;;;;;5035420;28;20309;-71
2022/10/15 06:00:16;;;;;;;0.40;0.40;;;18.00;99.90;;;;;;5052910;28;20189;-71
2022/10/15 06:02:51;;;;;;;0.40;0.40;;;18.00;99.90;;;;;;5022150;28;20168;-71
2022/10/15 06:05:16;;;;;;;0.47;0.40;;;18.00;99.90;;;;;;5000481;28;20262;-71
2022/10/15 06:07:42;;;;;;;0.38;0.30;;;18.00;99.90;;;;;;4995537;28;20207;-71
2022/10/15 06:10:08;;;;;;;0.45;0.45;;;18.00;99.90;;;;;;4995558;28;20184;-70
2022/10/15 06:12:34;;;;;;;0.40;0.40;;;18.00;99.90;;;;;;4995499;28;20184;-71
2022/10/15 06:15:00;;;;;;;0.30;0.30;;;18.00;99.90;;;;;;5012802;28;20271;-70
2022/10/15 06:17:25;;;;;;;0.40;0.40;;;18.00;99.90;;;;;;4995644;28;20238;-71
2022/10/15 06:19:51;;;;;;;0.38;0.22;;;18.00;99.90;;;;;;4995217;28;20224;-71
2022/10/15 06:22:17;;;;;;;0.30;0.30;;;18.00;99.90;;;;;;4979060;28;20192;-71
2022/10/15 06:24:42;;;;;;;1.13;0.50;;;18.00;99.90;;;;;;5031350;28;20214;-70
2022/10/15 06:27:10;;;;;;;0.50;0.50;;;18.00;99.90;;;;;;5052149;28;20202;-71
2022/10/15 06:29:36;;;;;;;0.30;0.30;;;18.00;99.90;;;;;;5018263;28;20700;-71
2022/10/15 06:32:02;;;;;;;0.40;0.40;;;18.00;99.90;;;;;;5034538;28;20206;-71
2022/10/15 06:34:27;;;;;;;0.50;0.40;;;18.00;99.90;;;;;;5034601;28;20174;-71
2022/10/15 06:36:53;;;;;;;0.60;0.40;;;18.00;99.90;;;;;;5020501;28;20211;-71
2022/10/15 06:39:19;;;;;;;0.40;0.40;;;18.00;99.90;;;;;;5014827;28;20179;-71
2022/10/15 06:41:44;;;;;;;0.40;0.40;;;18.00;99.90;;;;;;5014758;28;20205;-71
2022/10/15 06:44:10;;;;;;;0.50;0.50;;;18.00;99.90;;;;;;5031003;28;20195;-71
2022/10/15 06:46:36;;;;;;;0.50;0.50;;;18.00;99.90;;;;;;4997512;28;20220;-70
2022/10/15 06:49:02;;;;;;;1.05;0.50;;;18.00;99.90;;;;;;4995182;28;20238;-71
2022/10/15 06:51:29;;;;;;;0.40;0.40;;;18.00;99.90;;;;;;4995000;28;20183;-71
2022/10/15 06:53:55;;;;;;;0.30;0.30;;;18.00;99.90;;;;;;5019540;28;20194;-71
2022/10/15 06:56:20;;;;;;;0.30;0.30;;;18.00;99.90;;;;;;5019146;28;20279;-71
2022/10/15 06:58:46;;;;;;;0.40;0.30;;;18.00;99.90;;;;;;4994756;28;20271;-71
2022/10/15 07:01:12;;;;;;;0.35;0.32;;;18.00;99.90;;;;;;4995110;28;20192;-71
2022/10/15 07:03:37;;;;;;;0.40;0.40;;;18.00;99.90;;;;;;4994813;28;20196;-71
2022/10/15 07:06:08;;;;;;;0.30;0.30;;;18.00;99.90;;;;;;4994876;28;20214;-71
2022/10/15 07:08:34;;;;;;;0.65;0.50;;;18.10;99.90;;;;;;4994826;28;20610;-71
2022/10/15 07:11:03;;;;;;;0.80;0.30;;;18.00;99.90;;;;;;4994857;28;20248;-70
2022/10/15 07:13:31;;;;;;;0.40;0.40;;;18.00;99.90;;;;;;4996291;28;20191;-71
2022/10/15 07:16:07;;;;;;;0.57;0.30;;;18.00;99.90;;;;;;4998747;28;20191;-71
2022/10/15 07:18:33;;;;;;;0.40;0.40;;;18.10;99.90;;;;;;4998693;28;20625;-71
2022/10/15 07:21:00;;;;;;;0.40;0.40;;;18.00;99.90;;;;;;4998609;28;20210;-71
2022/10/15 07:23:26;;;;;;;0.95;0.40;;;18.00;99.90;;;;;;5014319;28;20218;-71
2022/10/15 07:25:51;;;;;;;0.30;0.30;;;18.10;99.90;;;;;;5037628;28;20249;-71
2022/10/15 07:28:17;;;;;;;0.50;0.50;;;18.00;99.90;;;;;;5038255;28;20332;-71
2022/10/15 07:30:43;;;;;;;0.50;0.50;;;18.10;99.90;;;;;;5038084;28;20189;-71
2022/10/15 07:33:09;;;;;;;0.60;0.40;;;18.10;99.90;;;;;;5038022;28;20186;-71
2022/10/15 07:35:36;;;;;;;0.40;0.30;;;18.10;99.90;;;;;;5021263;28;20187;-72
2022/10/15 07:38:02;;;;;;;0.40;0.40;;;18.10;99.90;;;;;;5037692;28;20206;-71
2022/10/15 07:40:29;;;;;;;0.40;0.40;;;18.00;99.90;;;;;;5037767;28;20468;-72
2022/10/15 07:42:56;;;;;;;1.23;0.88;;;18.00;99.90;;;;;;5037577;28;20205;-71
2022/10/15 07:45:26;;;;;;;0.47;0.47;;;18.00;99.90;;;;;;5037663;28;20226;-71
2022/10/15 07:47:52;;;;;;;1.05;0.40;;;18.10;99.90;;;;;;5037659;28;20239;-71
2022/10/15 07:50:19;;;;;;;0.30;0.30;;;18.10;99.90;;;;;;5054176;28;20242;-71
2022/10/15 07:52:46;;;;;;;0.75;0.40;;;18.10;99.90;;;;;;5051971;28;20191;-72
2022/10/15 07:55:12;;;;;;;0.55;0.43;;;18.10;99.90;;;;;;5037498;28;20273;-71
2022/10/15 07:57:38;;;;;;;0.38;0.38;;;18.10;99.90;;;;;;5055085;28;20289;-71
2022/10/15 08:00:05;;;;;;;0.30;0.30;;;18.00;99.90;;;;;;5037289;28;20178;-72
2022/10/15 08:02:39;;;;;;;0.50;0.40;;;18.10;99.90;;;;;;5038418;28;20178;-73
2022/10/15 08:05:05;;;;;;;0.30;0.30;;;18.10;99.90;;;;;;5037108;28;20215;-71
2022/10/15 08:07:31;;;;;;;0.57;0.47;;;18.10;99.90;;;;;;5020568;28;20210;-72
2022/10/15 08:09:57;;;;;;;0.40;0.40;;;18.10;99.90;;;;;;5033782;28;20190;-72
2022/10/15 08:12:26;;;;;;;0.50;0.50;;;18.10;99.90;;;;;;5017605;28;20221;-72
2022/10/15 08:14:51;;;;;;;0.40;0.40;;;18.10;99.90;;;;;;5001035;28;20197;-72
2022/10/15 08:17:18;;;;;;;0.35;0.30;;;18.10;99.90;;;;;;5017606;28;20718;-72
2022/10/15 08:19:44;;;;;;;0.40;0.40;;;18.20;99.90;;;;;;5017685;28;20237;-72
2022/10/15 08:22:11;;;;;;;0.40;0.40;;;18.20;99.90;;;;;;5000831;28;20241;-72
2022/10/15 08:24:37;;;;;;;0.40;0.40;;;18.20;99.90;;;;;;5032772;28;20304;-73
2022/10/15 08:27:03;;;;;;;0.30;0.30;;;18.20;99.90;;;;;;5021976;28;20691;-72
2022/10/15 08:29:28;;;;;;;0.43;0.40;;;18.20;99.90;;;;;;4997387;28;20192;-72
2022/10/15 08:31:54;;;;;;;0.30;0.30;;;18.20;99.90;;;;;;4998366;28;20180;-72
2022/10/15 08:34:23;;;;;;;0.47;0.47;;;18.20;99.90;;;;;;5002219;28;20197;-72
2022/10/15 08:36:48;;;;;;;0.40;0.40;;;18.20;99.90;;;;;;5034310;28;20224;-72
2022/10/15 08:39:14;;;;;;;0.60;0.55;;;18.20;99.90;;;;;;5036610;28;20182;-72
2022/10/15 08:41:46;;;;;;;0.40;0.40;;;18.20;99.90;;;;;;5036304;28;20182;-72
2022/10/15 08:44:37;;;;;;;2.03;0.43;;;18.20;99.90;;;;;;5036685;28;20201;-72
2022/10/15 08:47:40;;;;;;;0.40;0.40;;;18.20;99.90;;;;;;5033138;28;20675;-72
2022/10/15 08:50:31;;;;;;;0.40;0.40;;;18.30;99.90;;;;;;5022663;28;20194;-73
2022/10/15 08:52:58;;;;;;;0.40;0.40;;;18.20;99.90;;;;;;5020406;28;20190;-72
2022/10/15 08:55:34;;;;;;;0.30;0.30;;;18.20;99.90;;;;;;5036329;28;20189;-72
2022/10/15 08:58:15;;;;;;;0.50;0.50;;;18.30;99.90;;;;;;5036397;28;20256;-72
2022/10/15 09:00:53;;;;;;;0.40;0.40;;;18.20;99.90;;;;;;5036199;28;20186;-72
2022/10/15 09:03:38;;;;;;;0.40;0.40;;;18.30;99.90;;;;;;5036074;28;20175;-73
2022/10/15 09:06:34;;;;;;;0.40;0.40;;;18.20;99.90;;;;;;5053537;28;20293;-73
2022/10/15 09:09:37;;;;;;;0.40;0.40;;;18.20;99.90;;;;;;5036073;28;20270;-72
2022/10/15 09:12:36;;;;;;;0.38;0.38;;;18.20;99.90;;;;;;5036113;28;20178;-73
2022/10/15 09:15:11;;;;;;;0.40;0.40;;;18.30;99.90;;;;;;5052494;28;20281;-72
2022/10/15 09:17:40;;;;;;;0.50;0.50;;;18.30;99.90;;;;;;5028961;28;20214;-73
2022/10/15 09:20:15;;;;;;;0.35;0.32;;;18.30;99.90;;;;;;5035479;28;20178;-73
2022/10/15 09:22:42;;;;;;;0.50;0.40;;;18.30;99.90;;;;;;5035783;28;20189;-73
2022/10/15 09:25:18;;;;;;;3.10;0.50;;;18.30;99.90;;;;;;5053439;28;20206;-72
2022/10/15 09:27:47;;;;;;;0.40;0.40;;;18.30;99.90;;;;;;5027818;28;20215;-72
2022/10/15 09:30:41;;;;;;;1.02;0.50;;;18.30;99.90;;;;;;5035599;28;20217;-73
2022/10/15 09:33:31;;;;;;;0.40;0.40;;;18.30;99.90;;;;;;5035706;28;20166;-73
2022/10/15 09:36:30;;;;;;;0.40;0.40;;;18.30;99.90;;;;;;5018930;28;20281;-72
2022/10/15 09:39:11;;;;;;;0.85;0.50;;;18.30;99.90;;;;;;5000039;28;20187;-73
2022/10/15 09:42:00;;;;;;;0.40;0.30;;;18.30;99.90;;;;;;4989518;28;20224;-73
2022/10/15 09:44:36;;;;;;;0.73;0.50;;;18.30;99.90;;;;;;4996054;28;20192;-73
2022/10/15 09:47:23;;;;;;;0.45;0.45;;;18.30;99.90;;;;;;4998831;28;20225;-73
2022/10/15 09:49:49;;;;;;;0.50;0.50;;;18.30;99.90;;;;;;5034526;28;20893;-72
2022/10/15 09:52:43;;;;;;;0.80;0.55;;;18.30;99.90;;;;;;5051647;28;20183;-72
2022/10/15 09:55:25;;;;;;;0.50;0.50;;;18.30;99.90;;;;;;5035390;28;20285;-72
2022/10/15 09:57:55;;;;;;;0.50;0.50;;;18.30;99.90;;;;;;5035391;28;20210;-73
2022/10/15 10:00:22;;;;;;;2.90;0.60;;;18.30;99.90;;;;;;5018836;28;20175;-73
2022/10/15 10:03:12;;;;;;;0.73;0.55;;;18.30;99.90;;;;;;5052763;28;20236;-73
2022/10/15 10:05:38;;;;;;;0.60;0.60;;;18.30;99.90;;;;;;5018321;28;20206;-73
2022/10/15 10:08:17;;;;;;;1.15;0.45;;;18.30;99.90;;;;;;5034881;28;20202;-72
2022/10/15 10:10:44;;;;;;;0.77;0.50;;;18.30;99.90;;;;;;5018333;28;20239;-73
2022/10/15 10:13:36;;;;;;;1.20;0.50;;;18.30;99.90;;;;;;5034846;28;20194;-71
2022/10/15 10:16:15;;;;;;;0.95;0.60;;;18.30;99.90;;;;;;5030979;28;20206;-72
2022/10/15 10:18:49;;;;;;;1.10;0.50;;;18.30;99.90;;;;;;5015853;28;20264;-73
2022/10/15 10:21:45;;;;;;;0.60;0.60;;;18.30;99.90;;;;;;5035025;28;20201;-72
2022/10/15 10:24:30;;;;;;;1.08;0.55;;;18.30;99.90;;;;;;5012386;28;20592;-72
2022/10/15 10:26:57;;;;;;;1.13;0.50;;;18.30;99.90;;;;;;5015834;28;20211;-72
2022/10/15 10:29:26;;;;;;;1.02;0.65;;;18.30;99.90;;;;;;5015245;28;20176;-72
2022/10/15 10:31:52;;;;;;;1.70;0.60;;;18.30;99.90;;;;;;5025724;28;20191;-72
2022/10/15 10:34:32;;;;;;;1.45;1.35;;;18.30;99.90;;;;;;5018652;28;20193;-72
2022/10/15 10:37:03;;;;;;;1.88;0.85;;;18.30;99.90;;;;;;5025547;28;20568;-72
2022/10/15 10:39:32;;;;;;;1.98;0.60;;;18.30;99.90;;;;;;5031276;28;20230;-72
2022/10/15 10:42:06;;;;;;;1.75;0.80;;;18.30;99.90;;;;;;5029995;28;20175;-72
2022/10/15 10:44:39;;;;;;;2.17;0.50;;;18.30;99.90;;;;;;5014558;28;20175;-72
2022/10/15 10:47:23;;;;;;;1.20;0.80;;;18.40;99.90;;;;;;5031612;28;20257;-72
2022/10/15 10:49:57;;;;;;;2.08;0.70;;;18.30;99.90;;;;;;5013711;28;20167;-73
2022/10/15 10:52:37;;;;;;;0.82;0.52;;;18.40;99.90;;;;;;5016231;28;20190;-72
2022/10/15 10:55:11;;;;;;;1.67;0.90;;;18.40;99.90;;;;;;5013543;28;20182;-72
2022/10/15 10:57:53;;;;;;;1.85;0.60;;;18.30;99.90;;;;;;5013772;28;20229;-72
2022/10/15 11:00:41;;;;;;;1.30;0.50;;;18.40;99.90;;;;;;5016030;28;20281;-72
2022/10/15 11:03:31;;;;;;;0.98;0.60;;;18.40;99.90;;;;;;5013389;28;20233;-72
2022/10/15 11:06:34;;;;;;;1.15;0.70;;;18.40;99.90;;;;;;4997264;28;20246;-73
2022/10/15 11:09:40;;;;;;;0.95;0.60;;;18.40;99.90;;;;;;5031239;28;20175;-72
2022/10/15 11:12:34;;;;;;;1.15;0.70;;;18.30;99.90;;;;;;5013144;28;20175;-72
2022/10/15 11:15:45;;;;;;;1.95;0.75;;;18.30;99.90;;;;;;4997434;28;20187;-72
2022/10/15 11:18:46;;;;;;;2.63;0.90;;;18.40;99.90;;;;;;5000443;28;20310;-72
2022/10/15 11:21:47;;;;;;;1.77;0.70;;;18.30;99.90;;;;;;5018494;28;20598;-72
2022/10/15 11:24:29;;;;;;;2.25;0.70;;;18.30;99.90;;;;;;5001383;28;20206;-73
2022/10/15 11:27:48;;;;;;;0.85;0.55;;;18.40;99.90;;;;;;5051140;28;20229;-72
2022/10/15 11:30:30;;;;;;;0.90;0.50;;;18.40;99.90;;;;;;5033427;28;20194;-72
2022/10/15 11:33:22;;;;;;;1.08;0.50;;;18.40;99.90;;;;;;5049747;28;20666;-73
2022/10/15 11:36:13;;;;;;;0.60;0.52;;;18.40;99.90;;;;;;5033028;28;20200;-72
2022/10/15 11:39:06;;;;;;;1.67;0.50;;;18.30;99.90;;;;;;5033116;28;20194;-73
2022/10/15 11:41:58;;;;;;;1.05;0.60;;;18.40;99.90;;;;;;5050850;28;20182;-73
2022/10/15 11:44:33;;;;;;;0.95;0.60;;;18.40;99.90;;;;;;5044147;28;20214;-73
2022/10/15 11:47:35;;;;;;;1.27;0.70;;;18.40;99.90;;;;;;5013646;28;20208;-73
2022/10/15 11:50:25;;;;;;;1.17;0.60;;;18.40;99.90;;;;;;5014114;28;20186;-73
2022/10/15 11:53:27;;;;;;;1.23;0.60;;;18.40;99.90;;;;;;5031137;28;20175;-73
2022/10/15 11:56:13;;;;;;;1.00;0.60;;;18.40;99.90;;;;;;5024136;28;20191;-73
2022/10/15 11:58:53;;;;;;;1.83;0.82;;;18.40;99.90;;;;;;4977844;28;20223;-73
2022/10/15 12:01:42;;;;;;;1.95;0.52;;;18.40;99.90;;;;;;4996800;28;20180;-73
2022/10/15 12:04:39;;;;;;;1.67;0.73;;;18.40;99.90;;;;;;4997998;28;20271;-73
2022/10/15 12:07:28;;;;;;;0.43;0.43;;;18.40;99.90;;;;;;5033472;28;20211;-73
2022/10/15 12:10:24;;;;;;;0.50;0.50;;;18.40;99.90;;;;;;5001245;28;20234;-73
2022/10/15 12:13:06;;;;;;;0.93;0.70;;;18.40;99.90;;;;;;5009434;28;20586;-73
2022/10/15 12:15:54;;;;;;;1.15;0.75;;;18.40;99.90;;;;;;5011302;28;20187;-72
2022/10/15 12:18:35;;;;;;;0.60;0.57;;;18.40;99.90;;;;;;4992774;28;20211;-73
2022/10/15 12:21:01;;;;;;;1.27;0.57;;;18.40;99.90;;;;;;5020732;28;20186;-73
2022/10/15 12:23:36;;;;;;;0.80;0.50;;;18.40;99.90;;;;;;5053386;28;20241;-73
2022/10/15 12:26:22;;;;;;;1.65;0.50;;;18.40;99.90;;;;;;5020564;28;20202;-73
2022/10/15 12:28:53;;;;;;;2.63;0.52;;;18.40;99.90;;;;;;5036956;28;20256;-73
2022/10/15 12:31:20;;;;;;;1.65;0.70;;;18.40;99.90;;;;;;5036901;28;20716;-73
2022/10/15 12:33:52;;;;;;;0.98;0.65;;;18.40;99.90;;;;;;5036925;28;20190;-73
2022/10/15 12:36:26;;;;;;;1.40;0.73;;;18.40;99.90;;;;;;5036480;28;20220;-73
2022/10/15 12:38:59;;;;;;;0.93;0.60;;;18.40;99.90;;;;;;5020201;28;20228;-73
2022/10/15 12:41:44;;;;;;;1.77;0.68;;;18.40;99.90;;;;;;5020411;28;20265;-72
2022/10/15 12:44:29;;;;;;;1.65;0.50;;;18.40;99.90;;;;;;5020264;28;20254;-73
2022/10/15 12:46:56;;;;;;;0.50;0.50;;;18.40;99.90;;;;;;5036508;28;20207;-73
2022/10/15 12:49:33;;;;;;;1.58;0.70;;;18.40;99.90;;;;;;5036418;28;20186;-73
2022/10/15 12:52:01;;;;;;;2.25;0.57;;;18.40;99.90;;;;;;5016336;28;20281;-73
2022/10/15 12:54:45;;;;;;;1.77;0.70;;;18.40;99.90;;;;;;5036926;28;20174;-73
2022/10/15 12:57:36;;;;;;;0.85;0.57;;;18.40;99.90;;;;;;5053949;28;20202;-73
2022/10/15 13:00:22;;;;;;;0.93;0.70;;;18.40;99.90;;;;;;5019877;28;20226;-73
2022/10/15 13:02:49;;;;;;;1.38;0.82;;;18.50;99.90;;;;;;5006260;28;20199;-73
2022/10/15 13:05:31;;;;;;;3.17;1.00;;;18.40;99.90;;;;;;5036065;28;20205;-73
2022/10/15 13:08:00;;;;;;;3.45;0.82;;;18.50;99.90;;;;;;5036184;28;20226;-73
2022/10/15 13:10:39;;;;;;;0.60;0.60;;;18.40;99.90;;;;;;5036064;28;20189;-72
2022/10/15 13:13:15;;;;;;;0.70;0.60;;;18.40;99.90;;;;;;5019357;28;20542;-73
2022/10/15 13:15:49;;;;;;;0.65;0.60;;;18.40;99.90;;;;;;5035967;28;20179;-72
2022/10/15 13:18:15;;;;;;;2.50;0.70;;;18.40;99.90;;;;;;5019722;28;20214;-73
2022/10/15 13:20:46;;;;;;;3.30;0.93;;;18.40;99.90;;;;;;5015839;28;20286;-73
2022/10/15 13:23:31;;;;;;;2.33;0.93;;;18.40;99.90;;;;;;5035593;28;20187;-73
2022/10/15 13:26:15;;;;;;;1.45;0.88;;;18.40;99.90;;;;;;5019203;28;20209;-73
2022/10/15 13:28:42;;;;;;;2.10;0.60;;;18.40;99.90;;;;;;5053332;28;20555;-72